sensor_id;sensor_type;location;lat;lon;timestamp;pressure;altitude;pressure_sealevel;temperature;humidity
43039;BME280;62252;50.668;19.530;2022-10-03T00:00:10;97718.44;;;7.93;100.00
43039;BME280;62252;50.668;19.530;2022-10-03T00:03:18;97724.94;;;8.01;100.00
43039;BME280;62252;50.668;19.530;2022-10-03T00:06:02;97717.97;;;7.86;100.00
43039;BME280;62252;50.668;19.530;2022-10-03T00:08:59;97713.41;;;7.90;100.00
43039;BME280;62252;50.668;19.530;2022-10-03T00:11:45;97711.41;;;7.79;100.00
43039;BME280;62252;50.668;19.530;2022-10-03T00:14:25;97715.91;;;7.77;100.00
43039;BME280;62252;50.668;19.530;2022-10-03T00:17:04;97712.81;;;7.85;100.00
43039;BME280;62252;50.668;19.530;2022-10-03T00:19:45;97704.53;;;7.92;100.00
43039;BME280;62252;50.668;19.530;2022-10-03T00:22:32;97706.94;;;7.66;100.00
43039;BME280;62252;50.668;19.530;2022-10-03T00:25:27;97705.34;;;7.93;100.00
43039;BME280;62252;50.668;19.530;2022-10-03T00:28:14;97691.06;;;7.84;100.00
43039;BME280;62252;50.668;19.530;2022-10-03T00:31:03;97701.53;;;7.84;100.00
43039;BME280;62252;50.668;19.530;2022-10-03T00:33:48;97688.34;;;7.70;100.00
43039;BME280;62252;50.668;19.530;2022-10-03T00:36:30;97695.34;;;7.85;100.00
43039;BME280;62252;50.668;19.530;2022-10-03T00:39:27;97699.66;;;7.86;100.00
43039;BME280;62252;50.668;19.530;2022-10-03T00:51:29;97699.22;;;7.94;100.00
43039;BME280;62252;50.668;19.530;2022-10-03T00:54:16;97679.47;;;8.02;100.00
43039;BME280;62252;50.668;19.530;2022-10-03T00:57:15;97659.09;;;8.07;100.00
43039;BME280;62252;50.668;19.530;2022-10-03T01:00:03;97678.84;;;8.13;100.00
43039;BME280;62252;50.668;19.530;2022-10-03T01:02:57;97681.22;;;7.88;100.00
43039;BME280;62252;50.668;19.530;2022-10-03T01:05:43;97676.94;;;7.87;100.00
43039;BME280;62252;50.668;19.530;2022-10-03T01:08:39;97685.38;;;8.06;100.00
43039;BME280;62252;50.668;19.530;2022-10-03T01:11:25;97676.66;;;8.05;100.00
43039;BME280;62252;50.668;19.530;2022-10-03T01:14:13;97689.00;;;7.89;100.00
43039;BME280;62252;50.668;19.530;2022-10-03T01:17:00;97686.91;;;7.80;100.00
43039;BME280;62252;50.668;19.530;2022-10-03T01:25:38;97681.31;;;7.71;100.00
43039;BME280;62252;50.668;19.530;2022-10-03T01:28:28;97669.25;;;7.68;100.00
43039;BME280;62252;50.668;19.530;2022-10-03T01:31:22;97684.09;;;7.83;100.00
43039;BME280;62252;50.668;19.530;2022-10-03T01:33:53;97675.78;;;7.61;100.00
43039;BME280;62252;50.668;19.530;2022-10-03T01:36:32;97681.00;;;7.61;100.00
43039;BME280;62252;50.668;19.530;2022-10-03T01:39:10;97678.31;;;7.78;100.00
43039;BME280;62252;50.668;19.530;2022-10-03T01:41:50;97680.75;;;7.66;100.00
43039;BME280;62252;50.668;19.530;2022-10-03T01:44:30;97674.50;;;7.68;100.00
43039;BME280;62252;50.668;19.530;2022-10-03T01:47:19;97674.34;;;7.56;100.00
43039;BME280;62252;50.668;19.530;2022-10-03T01:50:02;97675.84;;;7.46;100.00
43039;BME280;62252;50.668;19.530;2022-10-03T01:52:40;97672.72;;;7.39;100.00
43039;BME280;62252;50.668;19.530;2022-10-03T01:55:22;97675.22;;;7.56;100.00
43039;BME280;62252;50.668;19.530;2022-10-03T01:58:02;97680.72;;;7.36;100.00
43039;BME280;62252;50.668;19.530;2022-10-03T02:00:43;97678.31;;;7.63;100.00
43039;BME280;62252;50.668;19.530;2022-10-03T02:03:20;97677.75;;;7.58;100.00
43039;BME280;62252;50.668;19.530;2022-10-03T02:05:59;97678.47;;;7.30;100.00
43039;BME280;62252;50.668;19.530;2022-10-03T02:08:45;97673.56;;;7.40;100.00
43039;BME280;62252;50.668;19.530;2022-10-03T02:11:30;97678.25;;;7.49;100.00
43039;BME280;62252;50.668;19.530;2022-10-03T02:14:16;97682.69;;;7.33;100.00
43039;BME280;62252;50.668;19.530;2022-10-03T02:17:00;97677.16;;;7.53;100.00
43039;BME280;62252;50.668;19.530;2022-10-03T02:19:40;97681.09;;;7.30;100.00
43039;BME280;62252;50.668;19.530;2022-10-03T02:22:26;97692.19;;;7.49;100.00
43039;BME280;62252;50.668;19.530;2022-10-03T02:25:23;97693.00;;;7.36;100.00
43039;BME280;62252;50.668;19.530;2022-10-03T02:28:27;97688.47;;;7.53;100.00
43039;BME280;62252;50.668;19.530;2022-10-03T02:34:37;97698.28;;;7.50;100.00
43039;BME280;62252;50.668;19.530;2022-10-03T02:43:58;97685.69;;;7.56;100.00
43039;BME280;62252;50.668;19.530;2022-10-03T02:46:57;97691.41;;;7.78;100.00
43039;BME280;62252;50.668;19.530;2022-10-03T03:01:49;97684.41;;;7.63;100.00
43039;BME280;62252;50.668;19.530;2022-10-03T03:07:43;97677.88;;;7.70;100.00
43039;BME280;62252;50.668;19.530;2022-10-03T03:10:39;97669.69;;;7.76;100.00
43039;BME280;62252;50.668;19.530;2022-10-03T03:13:35;97678.22;;;7.80;100.00
43039;BME280;62252;50.668;19.530;2022-10-03T03:16:41;97689.25;;;7.85;100.00
43039;BME280;62252;50.668;19.530;2022-10-03T03:22:25;97677.59;;;7.75;100.00
43039;BME280;62252;50.668;19.530;2022-10-03T03:25:12;97666.47;;;7.71;100.00
43039;BME280;62252;50.668;19.530;2022-10-03T03:28:00;97665.03;;;7.81;100.00
43039;BME280;62252;50.668;19.530;2022-10-03T03:30:38;97671.00;;;7.83;100.00
43039;BME280;62252;50.668;19.530;2022-10-03T03:33:23;97671.22;;;7.94;100.00
43039;BME280;62252;50.668;19.530;2022-10-03T03:36:00;97670.09;;;7.84;100.00
43039;BME280;62252;50.668;19.530;2022-10-03T03:38:40;97668.41;;;7.97;100.00
43039;BME280;62252;50.668;19.530;2022-10-03T03:41:36;97659.41;;;7.87;100.00
43039;BME280;62252;50.668;19.530;2022-10-03T03:47:20;97675.38;;;7.53;100.00
43039;BME280;62252;50.668;19.530;2022-10-03T03:50:09;97659.53;;;7.41;100.00
43039;BME280;62252;50.668;19.530;2022-10-03T03:53:01;97667.28;;;7.58;100.00
43039;BME280;62252;50.668;19.530;2022-10-03T03:55:54;97658.47;;;7.59;100.00
43039;BME280;62252;50.668;19.530;2022-10-03T03:58:34;97665.47;;;7.44;100.00
43039;BME280;62252;50.668;19.530;2022-10-03T04:01:24;97660.66;;;7.66;100.00
43039;BME280;62252;50.668;19.530;2022-10-03T04:04:09;97660.13;;;7.46;100.00
43039;BME280;62252;50.668;19.530;2022-10-03T04:06:53;97658.34;;;7.46;100.00
43039;BME280;62252;50.668;19.530;2022-10-03T04:09:47;97654.09;;;7.59;100.00
43039;BME280;62252;50.668;19.530;2022-10-03T04:12:39;97655.81;;;7.45;100.00
43039;BME280;62252;50.668;19.530;2022-10-03T04:15:29;97662.16;;;7.70;100.00
43039;BME280;62252;50.668;19.530;2022-10-03T04:18:17;97664.19;;;7.65;100.00
43039;BME280;62252;50.668;19.530;2022-10-03T04:21:29;97660.31;;;7.43;100.00
43039;BME280;62252;50.668;19.530;2022-10-03T04:24:34;97648.03;;;7.43;100.00
43039;BME280;62252;50.668;19.530;2022-10-03T04:27:25;97638.75;;;7.53;100.00
43039;BME280;62252;50.668;19.530;2022-10-03T04:30:06;97650.56;;;7.45;100.00
43039;BME280;62252;50.668;19.530;2022-10-03T04:36:06;97655.34;;;7.38;100.00
43039;BME280;62252;50.668;19.530;2022-10-03T04:38:50;97665.09;;;7.21;100.00
43039;BME280;62252;50.668;19.530;2022-10-03T04:41:34;97661.66;;;7.50;100.00
43039;BME280;62252;50.668;19.530;2022-10-03T04:44:16;97668.34;;;7.24;100.00
43039;BME280;62252;50.668;19.530;2022-10-03T04:46:53;97660.09;;;7.16;100.00
43039;BME280;62252;50.668;19.530;2022-10-03T04:49:30;97670.03;;;7.25;100.00
43039;BME280;62252;50.668;19.530;2022-10-03T04:52:14;97673.25;;;7.30;100.00
43039;BME280;62252;50.668;19.530;2022-10-03T04:54:55;97677.88;;;7.25;100.00
43039;BME280;62252;50.668;19.530;2022-10-03T04:57:36;97680.13;;;7.47;100.00
43039;BME280;62252;50.668;19.530;2022-10-03T05:00:20;97668.75;;;7.32;100.00
43039;BME280;62252;50.668;19.530;2022-10-03T05:03:03;97655.50;;;7.35;100.00
43039;BME280;62252;50.668;19.530;2022-10-03T05:05:51;97660.00;;;7.33;100.00
43039;BME280;62252;50.668;19.530;2022-10-03T05:08:34;97670.19;;;7.38;100.00
43039;BME280;62252;50.668;19.530;2022-10-03T05:11:14;97677.47;;;7.33;100.00
43039;BME280;62252;50.668;19.530;2022-10-03T05:13:59;97677.38;;;7.34;100.00
43039;BME280;62252;50.668;19.530;2022-10-03T05:16:39;97675.63;;;7.35;100.00
43039;BME280;62252;50.668;19.530;2022-10-03T05:22:20;97665.38;;;7.46;100.00
43039;BME280;62252;50.668;19.530;2022-10-03T05:25:01;97670.69;;;7.44;100.00
43039;BME280;62252;50.668;19.530;2022-10-03T05:27:46;97675.31;;;7.39;100.00
43039;BME280;62252;50.668;19.530;2022-10-03T05:30:38;97670.59;;;7.46;100.00
43039;BME280;62252;50.668;19.530;2022-10-03T05:33:24;97661.91;;;7.45;100.00
43039;BME280;62252;50.668;19.530;2022-10-03T05:36:07;97665.94;;;7.51;100.00
43039;BME280;62252;50.668;19.530;2022-10-03T05:41:36;97673.94;;;7.63;100.00
43039;BME280;62252;50.668;19.530;2022-10-03T05:44:15;97678.22;;;7.64;100.00
43039;BME280;62252;50.668;19.530;2022-10-03T05:46:58;97674.03;;;7.62;100.00
43039;BME280;62252;50.668;19.530;2022-10-03T05:49:50;97670.53;;;7.61;100.00
43039;BME280;62252;50.668;19.530;2022-10-03T05:52:42;97673.25;;;7.60;100.00
43039;BME280;62252;50.668;19.530;2022-10-03T05:55:30;97676.16;;;7.69;100.00
43039;BME280;62252;50.668;19.530;2022-10-03T05:58:24;97682.66;;;7.48;100.00
43039;BME280;62252;50.668;19.530;2022-10-03T06:01:15;97681.16;;;7.44;100.00
43039;BME280;62252;50.668;19.530;2022-10-03T06:04:04;97683.78;;;7.44;100.00
43039;BME280;62252;50.668;19.530;2022-10-03T06:06:52;97686.97;;;7.49;100.00
43039;BME280;62252;50.668;19.530;2022-10-03T06:10:13;97680.56;;;7.84;100.00
43039;BME280;62252;50.668;19.530;2022-10-03T06:12:54;97687.53;;;7.54;100.00
43039;BME280;62252;50.668;19.530;2022-10-03T06:15:35;97690.59;;;7.47;100.00
43039;BME280;62252;50.668;19.530;2022-10-03T06:18:25;97700.84;;;7.36;100.00
43039;BME280;62252;50.668;19.530;2022-10-03T06:21:23;97705.66;;;7.28;100.00
43039;BME280;62252;50.668;19.530;2022-10-03T06:24:24;97699.09;;;7.05;100.00
43039;BME280;62252;50.668;19.530;2022-10-03T06:30:33;97705.81;;;6.94;100.00
43039;BME280;62252;50.668;19.530;2022-10-03T06:36:29;97695.47;;;6.92;100.00
43039;BME280;62252;50.668;19.530;2022-10-03T06:42:25;97690.97;;;7.25;100.00
43039;BME280;62252;50.668;19.530;2022-10-03T06:45:33;97715.94;;;7.31;100.00
43039;BME280;62252;50.668;19.530;2022-10-03T06:48:26;97700.59;;;6.94;100.00
43039;BME280;62252;50.668;19.530;2022-10-03T06:51:30;97693.84;;;7.05;100.00
43039;BME280;62252;50.668;19.530;2022-10-03T06:54:47;97712.78;;;6.95;100.00
43039;BME280;62252;50.668;19.530;2022-10-03T06:57:37;97702.03;;;6.99;100.00
43039;BME280;62252;50.668;19.530;2022-10-03T07:00:18;97708.97;;;7.00;100.00
43039;BME280;62252;50.668;19.530;2022-10-03T07:06:09;97707.78;;;7.06;100.00
43039;BME280;62252;50.668;19.530;2022-10-03T07:09:16;97704.91;;;7.10;100.00
43039;BME280;62252;50.668;19.530;2022-10-03T07:18:49;97729.28;;;7.26;100.00
43039;BME280;62252;50.668;19.530;2022-10-03T07:25:13;97707.50;;;7.26;100.00
43039;BME280;62252;50.668;19.530;2022-10-03T07:28:22;97727.91;;;7.50;100.00
43039;BME280;62252;50.668;19.530;2022-10-03T07:31:07;97735.09;;;7.47;100.00
43039;BME280;62252;50.668;19.530;2022-10-03T07:34:11;97733.34;;;7.16;100.00
43039;BME280;62252;50.668;19.530;2022-10-03T07:37:09;97738.00;;;7.11;100.00
43039;BME280;62252;50.668;19.530;2022-10-03T07:40:19;97735.22;;;7.14;100.00
43039;BME280;62252;50.668;19.530;2022-10-03T07:49:24;97732.41;;;7.17;100.00
43039;BME280;62252;50.668;19.530;2022-10-03T07:52:34;97725.47;;;7.47;100.00
43039;BME280;62252;50.668;19.530;2022-10-03T07:55:15;97743.94;;;7.60;100.00
43039;BME280;62252;50.668;19.530;2022-10-03T07:58:15;97726.78;;;7.70;100.00
43039;BME280;62252;50.668;19.530;2022-10-03T08:01:10;97741.75;;;7.52;100.00
43039;BME280;62252;50.668;19.530;2022-10-03T08:06:43;97734.88;;;7.36;100.00
43039;BME280;62252;50.668;19.530;2022-10-03T08:09:40;97714.53;;;7.70;100.00
43039;BME280;62252;50.668;19.530;2022-10-03T08:12:31;97719.84;;;7.84;100.00
43039;BME280;62252;50.668;19.530;2022-10-03T08:15:09;97730.09;;;8.03;100.00
43039;BME280;62252;50.668;19.530;2022-10-03T08:20:52;97725.09;;;7.98;100.00
43039;BME280;62252;50.668;19.530;2022-10-03T08:26:51;97731.50;;;8.08;100.00
43039;BME280;62252;50.668;19.530;2022-10-03T08:29:50;97723.19;;;8.16;100.00
43039;BME280;62252;50.668;19.530;2022-10-03T08:32:55;97742.28;;;8.18;100.00
43039;BME280;62252;50.668;19.530;2022-10-03T08:38:59;97710.53;;;8.08;100.00
43039;BME280;62252;50.668;19.530;2022-10-03T08:48:25;97714.41;;;8.17;100.00
43039;BME280;62252;50.668;19.530;2022-10-03T08:54:39;97723.72;;;8.07;100.00
43039;BME280;62252;50.668;19.530;2022-10-03T08:57:42;97731.34;;;8.26;100.00
43039;BME280;62252;50.668;19.530;2022-10-03T09:00:20;97717.03;;;8.17;100.00
43039;BME280;62252;50.668;19.530;2022-10-03T09:06:20;97723.63;;;8.08;100.00
43039;BME280;62252;50.668;19.530;2022-10-03T09:09:09;97724.97;;;7.86;100.00
43039;BME280;62252;50.668;19.530;2022-10-03T09:12:04;97729.16;;;7.59;100.00
43039;BME280;62252;50.668;19.530;2022-10-03T09:24:01;97855.25;;;7.51;100.00
43039;BME280;62252;50.668;19.530;2022-10-03T09:29:58;98094.38;;;7.67;100.00
43039;BME280;62252;50.668;19.530;2022-10-03T09:36:01;98094.22;;;7.53;100.00
43039;BME280;62252;50.668;19.530;2022-10-03T09:42:23;98177.22;;;7.68;100.00
43039;BME280;62252;50.668;19.530;2022-10-03T09:45:21;98166.22;;;7.62;100.00
43039;BME280;62252;50.668;19.530;2022-10-03T09:48:11;98182.47;;;7.68;100.00
43039;BME280;62252;50.668;19.530;2022-10-03T09:54:20;97762.50;;;7.86;100.00
43039;BME280;62252;50.668;19.530;2022-10-03T09:57:11;97764.22;;;7.56;100.00
43039;BME280;62252;50.668;19.530;2022-10-03T10:03:11;97764.97;;;7.58;100.00
43039;BME280;62252;50.668;19.530;2022-10-03T10:09:15;97767.16;;;7.50;100.00
43039;BME280;62252;50.668;19.530;2022-10-03T10:15:17;97761.16;;;7.64;100.00
43039;BME280;62252;50.668;19.530;2022-10-03T10:18:18;97754.47;;;7.58;100.00
43039;BME280;62252;50.668;19.530;2022-10-03T10:24:33;97750.81;;;7.92;100.00
43039;BME280;62252;50.668;19.530;2022-10-03T10:27:41;97756.06;;;7.92;100.00
43039;BME280;62252;50.668;19.530;2022-10-03T10:37:04;97766.16;;;7.84;100.00
43039;BME280;62252;50.668;19.530;2022-10-03T10:46:25;97767.56;;;7.89;100.00
43039;BME280;62252;50.668;19.530;2022-10-03T11:11:03;97761.16;;;8.67;100.00
43039;BME280;62252;50.668;19.530;2022-10-03T11:14:05;97772.94;;;8.88;100.00
43039;BME280;62252;50.668;19.530;2022-10-03T11:17:09;97777.47;;;8.86;100.00
43039;BME280;62252;50.668;19.530;2022-10-03T11:23:17;97779.78;;;9.32;100.00
43039;BME280;62252;50.668;19.530;2022-10-03T11:32:49;97796.06;;;10.17;100.00
43039;BME280;62252;50.668;19.530;2022-10-03T11:35:43;97793.44;;;9.37;100.00
43039;BME280;62252;50.668;19.530;2022-10-03T11:38:20;97792.88;;;9.18;100.00
43039;BME280;62252;50.668;19.530;2022-10-03T11:41:04;97797.41;;;9.02;100.00
43039;BME280;62252;50.668;19.530;2022-10-03T11:43:59;97798.06;;;9.06;100.00
43039;BME280;62252;50.668;19.530;2022-10-03T11:46:48;97802.16;;;9.10;100.00
43039;BME280;62252;50.668;19.530;2022-10-03T11:52:27;97809.94;;;9.11;100.00
43039;BME280;62252;50.668;19.530;2022-10-03T11:55:18;97812.56;;;9.25;100.00
43039;BME280;62252;50.668;19.530;2022-10-03T11:58:02;97805.16;;;9.46;100.00
43039;BME280;62252;50.668;19.530;2022-10-03T12:00:41;97814.72;;;9.47;100.00
43039;BME280;62252;50.668;19.530;2022-10-03T12:03:16;97818.75;;;9.52;100.00
43039;BME280;62252;50.668;19.530;2022-10-03T12:05:59;97812.88;;;9.75;100.00
43039;BME280;62252;50.668;19.530;2022-10-03T12:08:53;97807.97;;;10.10;100.00
43039;BME280;62252;50.668;19.530;2022-10-03T12:11:34;97798.03;;;10.01;100.00
43039;BME280;62252;50.668;19.530;2022-10-03T12:14:21;97805.78;;;9.90;100.00
43039;BME280;62252;50.668;19.530;2022-10-03T12:17:04;97798.22;;;10.24;100.00
43039;BME280;62252;50.668;19.530;2022-10-03T12:19:45;97788.00;;;10.84;100.00
43039;BME280;62252;50.668;19.530;2022-10-03T12:22:38;97789.59;;;10.35;100.00
43039;BME280;62252;50.668;19.530;2022-10-03T12:25:23;97783.19;;;10.51;100.00
43039;BME280;62252;50.668;19.530;2022-10-03T12:28:01;97782.59;;;10.48;100.00
43039;BME280;62252;50.668;19.530;2022-10-03T12:30:46;97817.63;;;10.61;100.00
43039;BME280;62252;50.668;19.530;2022-10-03T12:33:28;97794.09;;;10.72;100.00
43039;BME280;62252;50.668;19.530;2022-10-03T12:36:03;97806.84;;;10.26;100.00
43039;BME280;62252;50.668;19.530;2022-10-03T12:39:02;97789.81;;;10.19;100.00
43039;BME280;62252;50.668;19.530;2022-10-03T12:41:55;97797.25;;;10.77;100.00
43039;BME280;62252;50.668;19.530;2022-10-03T12:44:39;97795.19;;;10.55;100.00
43039;BME280;62252;50.668;19.530;2022-10-03T12:47:25;97785.94;;;10.50;100.00
43039;BME280;62252;50.668;19.530;2022-10-03T12:49:59;97793.75;;;10.64;100.00
43039;BME280;62252;50.668;19.530;2022-10-03T12:52:37;97806.97;;;10.50;100.00
43039;BME280;62252;50.668;19.530;2022-10-03T12:55:22;97798.50;;;10.20;100.00
43039;BME280;62252;50.668;19.530;2022-10-03T12:58:01;97803.47;;;10.24;100.00
43039;BME280;62252;50.668;19.530;2022-10-03T13:00:38;97820.88;;;10.13;100.00
43039;BME280;62252;50.668;19.530;2022-10-03T13:03:22;97802.59;;;10.63;100.00
43039;BME280;62252;50.668;19.530;2022-10-03T13:09:11;97816.09;;;10.71;100.00
43039;BME280;62252;50.668;19.530;2022-10-03T13:11:54;97798.06;;;10.65;100.00
43039;BME280;62252;50.668;19.530;2022-10-03T13:14:38;97807.66;;;10.66;100.00
43039;BME280;62252;50.668;19.530;2022-10-03T13:17:17;97823.63;;;10.63;100.00
43039;BME280;62252;50.668;19.530;2022-10-03T13:19:59;97819.09;;;10.40;100.00
43039;BME280;62252;50.668;19.530;2022-10-03T13:22:38;97820.31;;;10.86;100.00
43039;BME280;62252;50.668;19.530;2022-10-03T13:25:17;97815.75;;;10.63;100.00
43039;BME280;62252;50.668;19.530;2022-10-03T13:27:59;97815.78;;;10.88;100.00
43039;BME280;62252;50.668;19.530;2022-10-03T13:30:40;97818.56;;;10.60;100.00
43039;BME280;62252;50.668;19.530;2022-10-03T13:33:16;97816.56;;;10.51;100.00
43039;BME280;62252;50.668;19.530;2022-10-03T13:35:49;97811.41;;;10.49;100.00
43039;BME280;62252;50.668;19.530;2022-10-03T13:38:57;97811.50;;;10.35;100.00
43039;BME280;62252;50.668;19.530;2022-10-03T13:41:32;97814.84;;;9.98;100.00
43039;BME280;62252;50.668;19.530;2022-10-03T13:44:14;97817.59;;;9.97;100.00
43039;BME280;62252;50.668;19.530;2022-10-03T13:46:48;97827.84;;;10.14;100.00
43039;BME280;62252;50.668;19.530;2022-10-03T13:49:24;97818.88;;;10.04;100.00
43039;BME280;62252;50.668;19.530;2022-10-03T13:52:03;97818.13;;;10.41;100.00
43039;BME280;62252;50.668;19.530;2022-10-03T13:54:51;97826.38;;;10.10;100.00
43039;BME280;62252;50.668;19.530;2022-10-03T13:57:31;97826.84;;;10.02;100.00
43039;BME280;62252;50.668;19.530;2022-10-03T14:00:13;97842.72;;;10.27;100.00
43039;BME280;62252;50.668;19.530;2022-10-03T14:02:57;97843.91;;;10.09;100.00
43039;BME280;62252;50.668;19.530;2022-10-03T14:05:54;97849.31;;;9.94;100.00
43039;BME280;62252;50.668;19.530;2022-10-03T14:08:45;97860.25;;;9.88;100.00
43039;BME280;62252;50.668;19.530;2022-10-03T14:11:24;97845.13;;;9.77;100.00
43039;BME280;62252;50.668;19.530;2022-10-03T14:14:07;97858.00;;;9.82;100.00
43039;BME280;62252;50.668;19.530;2022-10-03T14:16:50;97856.59;;;9.76;100.00
43039;BME280;62252;50.668;19.530;2022-10-03T14:19:32;97865.78;;;9.83;100.00
43039;BME280;62252;50.668;19.530;2022-10-03T14:22:30;97863.28;;;9.68;100.00
43039;BME280;62252;50.668;19.530;2022-10-03T14:25:17;97856.06;;;9.71;100.00
43039;BME280;62252;50.668;19.530;2022-10-03T14:27:51;97868.69;;;9.79;100.00
43039;BME280;62252;50.668;19.530;2022-10-03T14:30:24;97896.47;;;9.69;100.00
43039;BME280;62252;50.668;19.530;2022-10-03T14:33:09;97876.31;;;9.69;100.00
43039;BME280;62252;50.668;19.530;2022-10-03T14:35:57;97878.84;;;9.71;100.00
43039;BME280;62252;50.668;19.530;2022-10-03T14:38:49;97874.34;;;9.73;100.00
43039;BME280;62252;50.668;19.530;2022-10-03T14:41:44;97883.72;;;9.77;100.00
43039;BME280;62252;50.668;19.530;2022-10-03T14:44:18;97878.56;;;9.75;100.00
43039;BME280;62252;50.668;19.530;2022-10-03T14:46:54;97884.63;;;9.76;100.00
43039;BME280;62252;50.668;19.530;2022-10-03T14:49:30;97882.78;;;9.78;100.00
43039;BME280;62252;50.668;19.530;2022-10-03T14:52:03;97886.97;;;9.80;100.00
43039;BME280;62252;50.668;19.530;2022-10-03T14:54:37;97880.44;;;9.73;100.00
43039;BME280;62252;50.668;19.530;2022-10-03T14:57:22;97885.13;;;9.68;100.00
43039;BME280;62252;50.668;19.530;2022-10-03T14:59:54;97891.22;;;9.69;100.00
43039;BME280;62252;50.668;19.530;2022-10-03T15:02:28;97896.69;;;9.66;100.00
43039;BME280;62252;50.668;19.530;2022-10-03T15:05:07;97900.28;;;9.51;100.00
43039;BME280;62252;50.668;19.530;2022-10-03T15:07:42;97903.25;;;9.59;100.00
43039;BME280;62252;50.668;19.530;2022-10-03T15:10:15;97904.94;;;9.46;100.00
43039;BME280;62252;50.668;19.530;2022-10-03T15:12:49;97887.31;;;9.48;100.00
43039;BME280;62252;50.668;19.530;2022-10-03T15:15:27;97900.44;;;9.62;100.00
43039;BME280;62252;50.668;19.530;2022-10-03T15:17:59;97900.19;;;9.38;100.00
43039;BME280;62252;50.668;19.530;2022-10-03T15:20:36;97909.09;;;9.36;100.00
43039;BME280;62252;50.668;19.530;2022-10-03T15:23:18;97913.53;;;9.20;100.00
43039;BME280;62252;50.668;19.530;2022-10-03T15:25:51;97913.44;;;9.07;100.00
43039;BME280;62252;50.668;19.530;2022-10-03T15:28:26;97947.94;;;9.15;100.00
43039;BME280;62252;50.668;19.530;2022-10-03T15:31:10;97942.38;;;8.33;100.00
43039;BME280;62252;50.668;19.530;2022-10-03T15:33:44;97948.88;;;7.79;100.00
43039;BME280;62252;50.668;19.530;2022-10-03T15:36:22;97939.97;;;7.66;100.00
43039;BME280;62252;50.668;19.530;2022-10-03T15:38:56;97927.25;;;7.58;100.00
43039;BME280;62252;50.668;19.530;2022-10-03T15:41:34;97941.09;;;7.45;100.00
43039;BME280;62252;50.668;19.530;2022-10-03T15:44:12;97952.00;;;7.37;100.00
43039;BME280;62252;50.668;19.530;2022-10-03T15:46:47;97943.72;;;7.45;100.00
43039;BME280;62252;50.668;19.530;2022-10-03T15:49:25;97944.28;;;7.34;100.00
43039;BME280;62252;50.668;19.530;2022-10-03T15:52:07;97942.38;;;7.53;100.00
43039;BME280;62252;50.668;19.530;2022-10-03T15:54:41;97944.41;;;7.48;100.00
43039;BME280;62252;50.668;19.530;2022-10-03T15:57:18;97949.81;;;7.45;100.00
43039;BME280;62252;50.668;19.530;2022-10-03T15:59:53;97968.38;;;7.41;100.00
43039;BME280;62252;50.668;19.530;2022-10-03T16:02:29;97966.53;;;7.43;100.00
43039;BME280;62252;50.668;19.530;2022-10-03T16:05:03;97971.91;;;7.40;100.00
43039;BME280;62252;50.668;19.530;2022-10-03T16:07:40;97976.06;;;7.44;100.00
43039;BME280;62252;50.668;19.530;2022-10-03T16:10:19;97980.84;;;7.36;100.00
43039;BME280;62252;50.668;19.530;2022-10-03T16:13:01;97982.91;;;7.46;100.00
43039;BME280;62252;50.668;19.530;2022-10-03T16:15:58;97972.44;;;7.46;100.00
43039;BME280;62252;50.668;19.530;2022-10-03T16:18:42;97987.66;;;7.55;100.00
43039;BME280;62252;50.668;19.530;2022-10-03T16:21:24;97988.47;;;7.73;100.00
43039;BME280;62252;50.668;19.530;2022-10-03T16:24:02;97990.00;;;7.44;100.00
43039;BME280;62252;50.668;19.530;2022-10-03T16:26:34;97988.41;;;7.57;100.00
43039;BME280;62252;50.668;19.530;2022-10-03T16:29:12;97992.56;;;7.61;100.00
43039;BME280;62252;50.668;19.530;2022-10-03T16:31:50;97996.47;;;7.70;100.00
43039;BME280;62252;50.668;19.530;2022-10-03T16:34:24;97987.69;;;7.71;100.00
43039;BME280;62252;50.668;19.530;2022-10-03T16:36:57;97992.25;;;7.67;100.00
43039;BME280;62252;50.668;19.530;2022-10-03T16:39:33;97997.28;;;7.87;100.00
43039;BME280;62252;50.668;19.530;2022-10-03T16:42:10;97994.00;;;7.84;100.00
43039;BME280;62252;50.668;19.530;2022-10-03T16:44:51;97992.66;;;7.92;100.00
43039;BME280;62252;50.668;19.530;2022-10-03T16:47:34;97997.56;;;8.14;100.00
43039;BME280;62252;50.668;19.530;2022-10-03T16:50:20;97990.31;;;8.03;100.00
43039;BME280;62252;50.668;19.530;2022-10-03T16:52:53;97996.97;;;7.93;100.00
43039;BME280;62252;50.668;19.530;2022-10-03T16:55:35;98004.75;;;7.95;100.00
43039;BME280;62252;50.668;19.530;2022-10-03T16:58:16;97991.28;;;8.01;100.00
43039;BME280;62252;50.668;19.530;2022-10-03T17:00:54;97997.31;;;8.03;100.00
43039;BME280;62252;50.668;19.530;2022-10-03T17:03:30;98000.00;;;8.01;100.00
43039;BME280;62252;50.668;19.530;2022-10-03T17:06:07;97991.16;;;8.20;100.00
43039;BME280;62252;50.668;19.530;2022-10-03T17:08:49;97994.25;;;7.95;100.00
43039;BME280;62252;50.668;19.530;2022-10-03T17:11:22;97990.31;;;8.03;100.00
43039;BME280;62252;50.668;19.530;2022-10-03T17:13:56;97989.53;;;8.17;100.00
43039;BME280;62252;50.668;19.530;2022-10-03T17:16:33;97978.56;;;8.11;100.00
43039;BME280;62252;50.668;19.530;2022-10-03T17:19:18;97975.50;;;8.34;100.00
43039;BME280;62252;50.668;19.530;2022-10-03T17:21:52;97992.16;;;8.17;100.00
43039;BME280;62252;50.668;19.530;2022-10-03T17:24:40;97996.03;;;8.10;100.00
43039;BME280;62252;50.668;19.530;2022-10-03T17:27:20;98018.94;;;8.06;100.00
43039;BME280;62252;50.668;19.530;2022-10-03T17:29:57;98024.28;;;8.21;100.00
43039;BME280;62252;50.668;19.530;2022-10-03T17:32:35;98028.06;;;7.99;100.00
43039;BME280;62252;50.668;19.530;2022-10-03T17:35:12;98039.47;;;7.98;100.00
43039;BME280;62252;50.668;19.530;2022-10-03T17:38:01;98041.72;;;7.89;100.00